Time;durP1;ratioP1;P1;durP2;ratioP2;P2;SDS_P1;SDS_P2;PMS_P1;PMS_P2;Temp;Humidity;BMP_temperature;BMP_pressure;BME280_temperature;BME280_humidity;BME280_pressure;Samples;Min_cycle;Max_cycle;Signal;HPM_P1;HPM_P2
2021/03/03 00:00:39;;;;;;;65.27;32.03;;;3.10;97.80;;;;;;5041047;28;20041;-60
2021/03/03 00:03:05;;;;;;;60.03;32.20;;;3.10;97.80;;;;;;5039515;28;20037;-62
2021/03/03 00:05:31;;;;;;;58.28;31.25;;;3.10;97.80;;;;;;5039174;28;20066;-62
2021/03/03 00:07:57;;;;;;;48.50;26.93;;;3.10;97.80;;;;;;5038635;28;20047;-61
2021/03/03 00:10:23;;;;;;;57.57;29.13;;;3.00;97.80;;;;;;5038428;28;20091;-61
2021/03/03 00:12:49;;;;;;;63.73;26.93;;;3.00;97.70;;;;;;5036561;28;20435;-61
2021/03/03 00:15:15;;;;;;;36.92;21.52;;;2.90;97.70;;;;;;5035505;28;20288;-61
2021/03/03 00:17:41;;;;;;;57.35;28.38;;;2.90;97.70;;;;;;5037583;28;20109;-61
2021/03/03 00:20:08;;;;;;;67.23;33.07;;;2.90;97.80;;;;;;5038422;28;20196;-60
2021/03/03 00:22:34;;;;;;;65.35;34.22;;;2.90;97.80;;;;;;5037465;28;20296;-61
2021/03/03 00:25:00;;;;;;;30.80;20.23;;;2.90;97.90;;;;;;5037972;28;20128;-61
2021/03/03 00:27:25;;;;;;;37.47;22.50;;;2.90;98.10;;;;;;5038984;28;20042;-61
2021/03/03 00:29:51;;;;;;;58.60;29.87;;;2.80;97.80;;;;;;5038585;28;20045;-61
2021/03/03 00:32:17;;;;;;;64.83;32.50;;;2.80;97.80;;;;;;5039567;28;20101;-61
2021/03/03 00:34:43;;;;;;;72.40;34.85;;;2.80;97.90;;;;;;5038525;28;20049;-61
2021/03/03 00:37:09;;;;;;;70.17;34.40;;;2.90;97.90;;;;;;5037455;28;20333;-60
2021/03/03 00:39:35;;;;;;;76.40;37.93;;;2.80;97.90;;;;;;5037808;28;20101;-62
2021/03/03 00:42:01;;;;;;;52.90;28.87;;;2.80;98.10;;;;;;5040603;28;20049;-62
2021/03/03 00:44:26;;;;;;;57.13;30.10;;;2.90;98.10;;;;;;5039404;28;20064;-61
2021/03/03 00:46:52;;;;;;;74.80;36.43;;;2.80;98.00;;;;;;5040397;28;20056;-61
2021/03/03 00:49:18;;;;;;;68.20;30.73;;;2.80;98.00;;;;;;5040543;28;20044;-62
2021/03/03 00:51:44;;;;;;;49.77;24.77;;;2.70;98.00;;;;;;5041086;28;20302;-60
2021/03/03 00:54:09;;;;;;;48.27;23.60;;;2.60;98.00;;;;;;5039849;28;20045;-61
2021/03/03 00:56:35;;;;;;;40.43;22.50;;;2.60;97.90;;;;;;5040296;28;20053;-62
2021/03/03 00:59:00;;;;;;;50.07;27.83;;;2.50;97.90;;;;;;5043441;28;20097;-61
2021/03/03 01:01:26;;;;;;;36.57;21.83;;;2.50;97.90;;;;;;5041084;28;20046;-63
2021/03/03 01:03:52;;;;;;;37.07;21.67;;;2.50;98.00;;;;;;5040668;28;20046;-61
2021/03/03 01:06:18;;;;;;;32.73;19.20;;;2.50;97.90;;;;;;5041194;28;20048;-61
2021/03/03 01:08:43;;;;;;;37.13;20.17;;;2.40;97.90;;;;;;5042489;28;20041;-62
2021/03/03 01:11:09;;;;;;;32.20;20.53;;;2.40;97.90;;;;;;5040928;28;20053;-63
2021/03/03 01:13:36;;;;;;;22.65;16.58;;;2.30;97.90;;;;;;5041631;28;20079;-61
2021/03/03 01:16:02;;;;;;;23.35;15.60;;;2.30;97.90;;;;;;5040827;28;20056;-60
2021/03/03 01:18:28;;;;;;;49.15;25.90;;;2.30;97.90;;;;;;5039482;28;20445;-61
2021/03/03 01:20:54;;;;;;;27.70;18.13;;;2.30;97.90;;;;;;5038905;28;20080;-60
2021/03/03 01:23:19;;;;;;;25.33;17.27;;;2.20;97.80;;;;;;5040461;28;20389;-61
2021/03/03 01:25:45;;;;;;;19.23;14.40;;;2.20;97.90;;;;;;5040128;28;20104;-62
2021/03/03 01:28:11;;;;;;;18.67;13.87;;;2.20;97.90;;;;;;5040673;28;20472;-61
2021/03/03 01:30:37;;;;;;;13.63;11.03;;;2.20;97.80;;;;;;5036136;28;20141;-61
2021/03/03 01:33:03;;;;;;;39.67;23.40;;;2.10;97.90;;;;;;5039090;28;20088;-61
2021/03/03 01:35:30;;;;;;;46.58;23.02;;;2.10;97.90;;;;;;5039989;28;20072;-61
2021/03/03 01:37:56;;;;;;;26.07;16.77;;;2.10;97.90;;;;;;5038433;28;20045;-61
2021/03/03 01:40:21;;;;;;;36.33;20.97;;;2.10;97.80;;;;;;5037678;28;20047;-62
2021/03/03 01:42:47;;;;;;;47.87;25.33;;;2.10;97.90;;;;;;5037812;28;20086;-61
2021/03/03 01:45:13;;;;;;;44.20;25.27;;;2.10;97.90;;;;;;5038637;28;20041;-61
2021/03/03 01:47:39;;;;;;;40.22;22.02;;;2.10;97.90;;;;;;5039433;28;20356;-61
2021/03/03 01:50:09;;;;;;;45.33;25.57;;;2.10;97.90;;;;;;5039908;28;20050;-61
2021/03/03 01:52:40;;;;;;;38.90;22.35;;;2.10;97.90;;;;;;5039886;28;20050;-60
2021/03/03 01:55:06;;;;;;;43.90;24.90;;;2.00;97.90;;;;;;5037813;28;20056;-61
2021/03/03 01:57:32;;;;;;;47.50;26.60;;;2.00;97.90;;;;;;5037561;28;20071;-62
2021/03/03 01:59:58;;;;;;;47.10;27.07;;;2.00;98.00;;;;;;5038932;28;20045;-61
2021/03/03 02:02:24;;;;;;;47.23;24.23;;;2.00;98.00;;;;;;5038545;28;20075;-61
2021/03/03 02:04:56;;;;;;;50.97;27.05;;;2.00;98.00;;;;;;5037752;28;20037;-61
2021/03/03 02:07:45;;;;;;;61.00;31.15;;;2.00;98.00;;;;;;5039414;28;20127;-61
2021/03/03 02:10:39;;;;;;;50.83;27.58;;;2.00;98.10;;;;;;5037282;28;20505;-62
2021/03/03 02:13:17;;;;;;;58.63;30.92;;;2.00;98.10;;;;;;5038201;28;20045;-61
2021/03/03 02:15:45;;;;;;;62.35;32.55;;;2.00;98.20;;;;;;5037536;28;20045;-61
2021/03/03 02:18:12;;;;;;;46.60;26.55;;;2.00;98.30;;;;;;5038549;28;20050;-61
2021/03/03 02:21:32;;;;;;;50.67;28.42;;;2.00;98.20;;;;;;5038259;28;20076;-61
2021/03/03 02:24:12;;;;;;;57.08;29.77;;;2.00;98.10;;;;;;5014188;28;20057;-61
2021/03/03 02:26:39;;;;;;;79.70;36.85;;;1.90;98.40;;;;;;5037179;28;20046;-62
2021/03/03 02:29:23;;;;;;;49.15;27.75;;;1.90;98.30;;;;;;5039710;28;20476;-62
2021/03/03 02:31:51;;;;;;;46.85;27.20;;;1.90;98.20;;;;;;5037012;28;20475;-62
2021/03/03 02:34:20;;;;;;;42.88;26.02;;;1.80;98.10;;;;;;5039125;28;20033;-61
2021/03/03 02:36:47;;;;;;;53.05;27.05;;;1.80;98.00;;;;;;5038569;28;20674;-61
2021/03/03 02:39:15;;;;;;;44.88;25.02;;;1.80;98.00;;;;;;5036577;28;20051;-61
2021/03/03 02:41:42;;;;;;;48.03;26.00;;;1.80;98.00;;;;;;5035588;28;20183;-61
2021/03/03 02:44:08;;;;;;;44.50;25.98;;;1.80;98.10;;;;;;5035148;28;20041;-60
2021/03/03 02:46:34;;;;;;;51.40;28.52;;;1.80;98.10;;;;;;5035437;28;20038;-61
2021/03/03 02:49:04;;;;;;;41.95;24.55;;;1.70;98.00;;;;;;5036461;28;20056;-61
2021/03/03 02:51:30;;;;;;;46.17;24.55;;;1.80;98.20;;;;;;5038137;28;20244;-60
2021/03/03 02:53:56;;;;;;;39.05;24.48;;;1.80;98.10;;;;;;5038648;28;20055;-62
2021/03/03 02:56:24;;;;;;;39.63;22.87;;;1.70;98.10;;;;;;5038517;28;20135;-61
2021/03/03 02:58:51;;;;;;;37.90;23.13;;;1.70;98.00;;;;;;5039641;28;20055;-60
2021/03/03 03:01:18;;;;;;;36.35;20.70;;;1.70;98.00;;;;;;5036731;28;20034;-61
2021/03/03 03:04:03;;;;;;;27.35;18.67;;;1.60;98.00;;;;;;5035003;28;20078;-62
2021/03/03 03:06:38;;;;;;;37.05;22.38;;;1.60;98.00;;;;;;5036004;28;20116;-62
2021/03/03 03:09:06;;;;;;;42.63;23.97;;;1.60;98.00;;;;;;5035223;28;20038;-61
2021/03/03 03:11:35;;;;;;;38.47;20.13;;;1.60;98.10;;;;;;5036627;28;20037;-61
2021/03/03 03:14:07;;;;;;;35.10;20.60;;;1.60;98.00;;;;;;5035436;28;20064;-61
2021/03/03 03:16:36;;;;;;;43.10;24.55;;;1.60;98.10;;;;;;5035317;28;20049;-61
2021/03/03 03:19:05;;;;;;;36.55;21.75;;;1.60;98.10;;;;;;5035194;28;20053;-62
2021/03/03 03:21:35;;;;;;;34.50;20.52;;;1.60;98.10;;;;;;5036044;28;20196;-62
2021/03/03 03:24:01;;;;;;;32.22;20.13;;;1.50;98.10;;;;;;5036996;28;20038;-61
2021/03/03 03:26:29;;;;;;;30.05;18.38;;;1.50;98.10;;;;;;5036745;28;20052;-63
2021/03/03 03:28:56;;;;;;;25.88;17.73;;;1.50;98.00;;;;;;5034817;28;20046;-62
2021/03/03 03:31:23;;;;;;;18.20;13.73;;;1.40;98.00;;;;;;4461634;28;22448;-62
2021/03/03 03:33:51;;;;;;;26.50;16.60;;;1.40;98.00;;;;;;5048287;28;20459;-63
2021/03/03 03:36:17;;;;;;;24.27;16.83;;;1.40;97.90;;;;;;5036200;28;20081;-62
2021/03/03 03:38:43;;;;;;;19.25;15.45;;;1.30;97.90;;;;;;5036500;28;20132;-61
2021/03/03 03:41:09;;;;;;;24.77;16.97;;;1.30;97.90;;;;;;5035790;28;20065;-61
2021/03/03 03:43:38;;;;;;;43.03;25.52;;;1.30;98.00;;;;;;5036094;28;20045;-60
2021/03/03 03:46:06;;;;;;;36.70;21.50;;;1.30;98.00;;;;;;5036306;28;20049;-62
2021/03/03 03:48:35;;;;;;;33.63;19.95;;;1.40;98.10;;;;;;5037235;28;20045;-62
2021/03/03 03:51:05;;;;;;;32.47;20.95;;;1.40;98.10;;;;;;5037084;28;20049;-63
2021/03/03 03:53:32;;;;;;;35.42;21.00;;;1.30;98.10;;;;;;5039176;28;20049;-63
2021/03/03 03:55:59;;;;;;;46.92;24.92;;;1.30;98.00;;;;;;5038187;28;20064;-62
2021/03/03 03:58:25;;;;;;;54.60;29.17;;;1.30;98.10;;;;;;5038353;28;20101;-61
2021/03/03 04:00:51;;;;;;;61.70;32.40;;;1.40;98.10;;;;;;5038119;28;20059;-61
2021/03/03 04:03:16;;;;;;;65.10;32.93;;;1.30;98.20;;;;;;5035688;28;20041;-62
2021/03/03 04:05:43;;;;;;;51.00;26.07;;;1.30;98.20;;;;;;5036016;28;20041;-61
2021/03/03 04:08:09;;;;;;;38.20;24.13;;;1.30;98.10;;;;;;5035520;28;20052;-61
2021/03/03 04:10:35;;;;;;;36.47;22.00;;;1.20;98.10;;;;;;5035932;28;20445;-62
2021/03/03 04:13:00;;;;;;;40.20;23.43;;;1.20;98.00;;;;;;5036793;28;20041;-61
2021/03/03 04:15:26;;;;;;;56.07;30.30;;;1.20;98.00;;;;;;5035827;28;20348;-62
2021/03/03 04:17:53;;;;;;;60.67;31.58;;;1.20;98.10;;;;;;5037940;28;20132;-62
2021/03/03 04:20:20;;;;;;;54.72;29.88;;;1.30;98.20;;;;;;5037427;28;20037;-62
2021/03/03 04:22:47;;;;;;;49.75;27.15;;;1.20;98.10;;;;;;5036815;28;20179;-61
2021/03/03 04:25:14;;;;;;;44.30;24.90;;;1.20;98.10;;;;;;5038096;28;20049;-62
2021/03/03 04:27:40;;;;;;;38.13;21.35;;;1.20;98.10;;;;;;5037329;28;20037;-62
2021/03/03 04:30:09;;;;;;;26.77;16.83;;;1.30;98.10;;;;;;5036123;28;20041;-61
2021/03/03 04:32:35;;;;;;;18.83;14.38;;;1.10;98.00;;;;;;5038449;28;20810;-61
2021/03/03 04:35:01;;;;;;;36.00;21.93;;;1.10;98.00;;;;;;5034948;28;20084;-61
2021/03/03 04:37:27;;;;;;;69.28;33.45;;;1.00;98.00;;;;;;5035611;28;20065;-61
2021/03/03 04:39:53;;;;;;;62.45;34.38;;;1.10;98.10;;;;;;5036502;28;20101;-61
2021/03/03 04:42:19;;;;;;;67.67;36.17;;;1.10;98.20;;;;;;5037062;28;20072;-61
2021/03/03 04:44:44;;;;;;;67.87;34.10;;;1.30;99.10;;;;;;5036874;28;20042;-62
2021/03/03 04:47:10;;;;;;;29.73;18.33;;;1.20;98.50;;;;;;5036166;28;20045;-61
2021/03/03 04:49:35;;;;;;;27.20;17.90;;;1.20;98.30;;;;;;5037186;28;20041;-61
2021/03/03 04:52:02;;;;;;;18.20;13.77;;;1.10;98.20;;;;;;5035701;28;20082;-61
2021/03/03 04:54:28;;;;;;;14.60;12.40;;;1.10;98.10;;;;;;5037177;28;20125;-61
2021/03/03 04:56:54;;;;;;;39.37;22.30;;;1.00;98.10;;;;;;5037094;28;20397;-61
2021/03/03 04:59:19;;;;;;;46.37;26.53;;;1.00;98.10;;;;;;5036565;28;20412;-62
2021/03/03 05:01:45;;;;;;;57.63;30.97;;;1.00;98.10;;;;;;5034178;28;20739;-61
2021/03/03 05:04:11;;;;;;;50.97;28.00;;;1.10;98.30;;;;;;5035325;28;20041;-62
2021/03/03 05:06:36;;;;;;;69.93;35.40;;;1.10;98.30;;;;;;5035344;28;20049;-61
2021/03/03 05:09:02;;;;;;;70.43;37.37;;;1.10;98.30;;;;;;5037381;28;20041;-61
2021/03/03 05:11:28;;;;;;;66.37;34.53;;;1.10;98.30;;;;;;5036855;28;20057;-61
2021/03/03 05:13:53;;;;;;;74.53;36.30;;;1.10;98.40;;;;;;5034928;28;20045;-63
2021/03/03 05:16:19;;;;;;;54.80;31.70;;;1.10;98.30;;;;;;5034884;28;20366;-62
2021/03/03 05:18:45;;;;;;;46.83;26.10;;;1.10;98.30;;;;;;5032935;28;20049;-62
2021/03/03 05:21:11;;;;;;;40.80;22.07;;;1.00;98.20;;;;;;5033397;28;20144;-61
2021/03/03 05:23:37;;;;;;;40.03;24.67;;;1.00;98.20;;;;;;5035155;28;20057;-61
2021/03/03 05:26:04;;;;;;;53.03;28.63;;;0.90;98.20;;;;;;5038369;28;20121;-62
2021/03/03 05:28:31;;;;;;;55.22;29.95;;;0.90;98.20;;;;;;5040097;28;20045;-62
2021/03/03 05:30:57;;;;;;;64.03;33.20;;;0.90;98.20;;;;;;5039074;28;20046;-61
2021/03/03 05:33:27;;;;;;;66.38;35.55;;;0.90;98.20;;;;;;5042771;28;20053;-61
2021/03/03 05:35:54;;;;;;;79.40;38.13;;;1.00;98.40;;;;;;5044110;28;20072;-61
2021/03/03 05:38:19;;;;;;;70.75;36.75;;;1.10;98.80;;;;;;5045927;28;20084;-62
2021/03/03 05:40:47;;;;;;;70.43;36.00;;;1.00;98.60;;;;;;5040725;28;20037;-62
2021/03/03 05:43:13;;;;;;;69.53;35.47;;;1.00;98.40;;;;;;5040044;28;20052;-61
2021/03/03 05:45:42;;;;;;;61.05;33.28;;;1.00;98.70;;;;;;5035894;28;20057;-62
2021/03/03 05:48:19;;;;;;;70.07;35.72;;;0.90;98.40;;;;;;5036972;28;20041;-62
2021/03/03 05:50:51;;;;;;;73.32;35.60;;;0.90;98.40;;;;;;5039598;28;20052;-61
2021/03/03 05:53:19;;;;;;;68.72;36.25;;;0.90;98.50;;;;;;5039608;28;20116;-62
2021/03/03 05:55:45;;;;;;;75.95;38.33;;;0.90;98.50;;;;;;5038048;28;20121;-61
2021/03/03 05:58:12;;;;;;;74.67;38.07;;;1.00;98.50;;;;;;5036678;28;20072;-62
2021/03/03 06:00:38;;;;;;;69.68;36.28;;;1.10;98.60;;;;;;5040020;28;20049;-62
2021/03/03 06:03:04;;;;;;;77.40;38.50;;;1.00;98.50;;;;;;5042497;28;20041;-61
2021/03/03 06:05:34;;;;;;;84.63;41.83;;;1.10;98.50;;;;;;5041974;28;20041;-61
2021/03/03 06:08:00;;;;;;;84.65;41.13;;;1.10;98.60;;;;;;5041041;28;20045;-61
2021/03/03 06:10:30;;;;;;;93.57;42.15;;;1.10;98.60;;;;;;5045730;28;20036;-62
2021/03/03 06:12:56;;;;;;;93.67;44.33;;;1.10;98.80;;;;;;5045819;28;20072;-63
2021/03/03 06:15:22;;;;;;;86.77;42.50;;;1.20;98.70;;;;;;5032207;28;20042;-62
2021/03/03 06:17:47;;;;;;;85.53;41.67;;;1.20;98.70;;;;;;5029190;28;20041;-61
2021/03/03 06:20:13;;;;;;;92.13;44.00;;;1.30;98.70;;;;;;5030178;28;20733;-61
2021/03/03 06:22:39;;;;;;;82.70;42.08;;;1.30;98.70;;;;;;5030635;28;20049;-60
2021/03/03 06:25:19;;;;;;;85.13;42.20;;;1.30;98.70;;;;;;5032036;28;20137;-61
2021/03/03 06:27:44;;;;;;;89.68;43.95;;;1.30;98.70;;;;;;5031470;28;20468;-62
2021/03/03 06:30:17;;;;;;;91.17;42.23;;;1.30;98.70;;;;;;5032335;28;20186;-60
2021/03/03 06:33:00;;;;;;;102.97;45.78;;;1.30;98.70;;;;;;5031185;28;20049;-64
2021/03/03 06:35:38;;;;;;;95.68;44.63;;;1.40;98.80;;;;;;5037244;28;20068;-60
2021/03/03 06:38:05;;;;;;;84.18;43.85;;;1.50;98.90;;;;;;5028379;28;20131;-61
2021/03/03 06:40:31;;;;;;;93.63;43.92;;;1.40;98.80;;;;;;5028805;28;20072;-61
2021/03/03 06:43:16;;;;;;;94.50;44.95;;;1.50;98.80;;;;;;5028793;28;20050;-62
2021/03/03 06:45:42;;;;;;;93.38;42.45;;;1.50;98.80;;;;;;5030057;28;20094;-65
2021/03/03 06:48:08;;;;;;;93.97;45.10;;;1.50;98.80;;;;;;5028523;28;20045;-65
2021/03/03 06:50:35;;;;;;;89.65;44.20;;;1.60;98.90;;;;;;5028870;28;20060;-61
2021/03/03 06:53:01;;;;;;;87.07;44.42;;;1.70;98.90;;;;;;5028544;28;20049;-64
2021/03/03 06:55:47;;;;;;;99.05;47.75;;;1.70;98.90;;;;;;5027910;28;20184;-62
2021/03/03 06:58:30;;;;;;;92.53;45.42;;;1.80;99.00;;;;;;5027507;28;20053;-63
2021/03/03 07:00:57;;;;;;;97.03;47.60;;;1.80;99.00;;;;;;5028019;28;20080;-63
2021/03/03 07:03:42;;;;;;;101.75;48.63;;;1.90;98.90;;;;;;5028131;28;20061;-62
2021/03/03 07:06:08;;;;;;;102.50;48.35;;;2.00;99.00;;;;;;5028674;28;20408;-73
2021/03/03 07:08:33;;;;;;;106.60;49.30;;;2.00;99.00;;;;;;5027131;28;20045;-64
2021/03/03 07:10:59;;;;;;;102.00;47.03;;;2.10;98.90;;;;;;5025361;28;20135;-64
2021/03/03 07:13:39;;;;;;;91.27;44.17;;;2.20;98.90;;;;;;5026526;28;20045;-64
2021/03/03 07:16:06;;;;;;;99.30;47.65;;;2.20;98.90;;;;;;5027242;28;20041;-65
2021/03/03 07:18:37;;;;;;;94.47;46.13;;;2.20;98.90;;;;;;5027415;28;20132;-65
2021/03/03 07:21:05;;;;;;;86.03;45.53;;;2.30;99.00;;;;;;5027029;28;20045;-65
2021/03/03 07:24:00;;;;;;;90.47;44.83;;;2.30;99.00;;;;;;5027222;28;20128;-65
2021/03/03 07:26:26;;;;;;;101.55;46.53;;;2.40;99.00;;;;;;5018269;28;20424;-65
2021/03/03 07:28:54;;;;;;;87.28;43.88;;;2.30;98.90;;;;;;5027414;28;20049;-64
2021/03/03 07:31:22;;;;;;;89.43;44.28;;;2.40;98.90;;;;;;5027312;28;20481;-65
2021/03/03 07:33:49;;;;;;;81.78;42.83;;;2.40;98.90;;;;;;5026948;28;20590;-65
2021/03/03 07:36:17;;;;;;;83.47;41.63;;;2.50;99.00;;;;;;5025848;28;20384;-64
2021/03/03 07:38:47;;;;;;;90.38;44.13;;;2.60;99.20;;;;;;5027234;28;20188;-63
2021/03/03 07:41:15;;;;;;;91.75;46.72;;;2.70;99.50;;;;;;5026942;28;20052;-65
2021/03/03 07:43:45;;;;;;;99.80;47.03;;;2.80;99.30;;;;;;5027773;28;20041;-64
2021/03/03 07:46:11;;;;;;;87.13;43.95;;;2.90;99.10;;;;;;5027664;28;20045;-65
2021/03/03 07:48:40;;;;;;;88.75;45.10;;;3.00;99.00;;;;;;5027277;28;20079;-64
2021/03/03 07:51:07;;;;;;;89.05;45.17;;;3.10;99.00;;;;;;5028630;28;20041;-65
2021/03/03 07:53:40;;;;;;;90.22;46.33;;;3.20;98.90;;;;;;5027626;28;20037;-64
2021/03/03 07:56:09;;;;;;;86.15;45.10;;;3.20;98.80;;;;;;5027924;28;20496;-65
2021/03/03 07:58:36;;;;;;;88.80;47.47;;;3.30;98.70;;;;;;5027247;28;20168;-64
2021/03/03 08:01:03;;;;;;;85.43;43.47;;;3.40;98.70;;;;;;5026804;28;20048;-63
2021/03/03 08:03:46;;;;;;;82.68;43.67;;;3.50;98.80;;;;;;5026833;28;20089;-63
2021/03/03 08:06:29;;;;;;;76.72;40.50;;;3.50;98.60;;;;;;5026618;28;20133;-63
2021/03/03 08:09:07;;;;;;;74.60;40.30;;;3.60;98.60;;;;;;5026491;28;20044;-63
2021/03/03 08:11:41;;;;;;;75.65;41.20;;;3.70;98.60;;;;;;5025145;28;20053;-64
2021/03/03 08:14:29;;;;;;;77.10;42.10;;;3.70;98.50;;;;;;5026436;28;20041;-65
2021/03/03 08:16:57;;;;;;;83.63;42.72;;;3.80;98.40;;;;;;5026347;28;20099;-64
2021/03/03 08:19:51;;;;;;;76.65;40.30;;;3.80;98.30;;;;;;5026613;28;20042;-64
2021/03/03 08:22:18;;;;;;;76.07;41.67;;;3.90;98.30;;;;;;5026409;28;20069;-65
2021/03/03 08:24:45;;;;;;;67.47;39.47;;;3.90;98.20;;;;;;5026457;28;20041;-65
2021/03/03 08:27:32;;;;;;;72.90;39.90;;;4.00;98.10;;;;;;5026230;28;20080;-64
2021/03/03 08:30:18;;;;;;;69.40;39.70;;;4.10;98.10;;;;;;5026263;28;20136;-64
2021/03/03 08:32:43;;;;;;;76.63;41.85;;;4.20;98.10;;;;;;5025442;28;20136;-65
2021/03/03 08:35:11;;;;;;;73.37;41.67;;;4.20;98.00;;;;;;5026261;28;20227;-66
2021/03/03 08:37:38;;;;;;;76.03;41.35;;;4.30;97.90;;;;;;5026295;28;20468;-65
2021/03/03 08:40:25;;;;;;;83.82;42.30;;;4.40;97.80;;;;;;5026430;28;20092;-64
2021/03/03 08:42:51;;;;;;;77.18;41.03;;;4.50;97.80;;;;;;5026108;28;20086;-64
2021/03/03 08:45:17;;;;;;;81.25;42.45;;;4.60;97.60;;;;;;5026281;28;20451;-65
2021/03/03 08:47:52;;;;;;;75.18;41.85;;;4.60;97.60;;;;;;5025987;28;20057;-66
2021/03/03 08:50:50;;;;;;;77.03;42.88;;;4.70;97.50;;;;;;5025889;28;20517;-66
2021/03/03 08:53:20;;;;;;;73.75;42.42;;;4.80;97.10;;;;;;5002844;28;20111;-67
2021/03/03 08:55:47;;;;;;;71.80;40.58;;;4.90;97.20;;;;;;5024400;28;20437;-67
2021/03/03 08:58:39;;;;;;;72.18;39.33;;;4.90;97.10;;;;;;5026006;28;20056;-66
2021/03/03 09:01:04;;;;;;;77.05;42.08;;;5.00;96.90;;;;;;5012088;28;20403;-66
2021/03/03 09:03:30;;;;;;;74.77;41.40;;;5.10;96.90;;;;;;5029730;28;20045;-65
2021/03/03 09:05:57;;;;;;;75.45;41.85;;;5.10;96.70;;;;;;5029793;28;20053;-65
2021/03/03 09:08:24;;;;;;;68.28;39.90;;;5.20;96.70;;;;;;5030461;28;20399;-65
2021/03/03 09:10:51;;;;;;;79.13;42.80;;;5.30;96.70;;;;;;5030868;28;20075;-64
2021/03/03 09:13:27;;;;;;;74.43;41.22;;;5.40;96.90;;;;;;5030485;28;20064;-65
2021/03/03 09:16:03;;;;;;;71.60;41.55;;;5.50;96.50;;;;;;5030417;28;20065;-64
2021/03/03 09:18:29;;;;;;;76.03;42.88;;;5.60;96.50;;;;;;5030903;28;20044;-66
2021/03/03 09:21:28;;;;;;;79.43;40.60;;;5.70;96.30;;;;;;5030489;28;20124;-65
2021/03/03 09:24:06;;;;;;;74.60;40.35;;;5.80;96.10;;;;;;5022827;28;20071;-65
2021/03/03 09:26:32;;;;;;;71.15;39.72;;;5.90;96.10;;;;;;5029541;28;20061;-63
2021/03/03 09:28:58;;;;;;;73.97;42.43;;;5.90;96.10;;;;;;5030596;28;20046;-64
2021/03/03 09:31:31;;;;;;;76.70;41.07;;;6.00;96.20;;;;;;5033077;28;20096;-64
2021/03/03 09:33:57;;;;;;;71.53;41.83;;;6.10;96.20;;;;;;5039866;28;20176;-65
2021/03/03 09:36:23;;;;;;;73.37;41.87;;;6.20;96.20;;;;;;5035004;28;20152;-64
2021/03/03 09:38:59;;;;;;;79.07;43.03;;;6.30;96.10;;;;;;5033555;28;20105;-64
2021/03/03 09:41:26;;;;;;;78.32;43.97;;;6.40;95.90;;;;;;5033225;28;20090;-64
2021/03/03 09:44:05;;;;;;;78.32;42.95;;;6.50;95.70;;;;;;5033299;28;20086;-65
2021/03/03 09:46:52;;;;;;;78.32;43.70;;;6.50;95.70;;;;;;5032946;28;20046;-64
2021/03/03 09:49:22;;;;;;;77.72;42.92;;;6.60;95.50;;;;;;5033448;28;20499;-63
2021/03/03 09:51:48;;;;;;;79.32;43.67;;;6.60;95.30;;;;;;5032416;28;20060;-64
2021/03/03 09:54:30;;;;;;;77.83;44.63;;;6.70;95.40;;;;;;5033424;28;20484;-64
2021/03/03 09:57:05;;;;;;;74.65;43.78;;;6.80;95.10;;;;;;5036750;28;20069;-63
2021/03/03 09:59:32;;;;;;;68.03;42.22;;;6.70;95.20;;;;;;5037380;28;20068;-64
2021/03/03 10:01:58;;;;;;;76.50;45.05;;;6.90;95.20;;;;;;5038812;28;20120;-64
2021/03/03 10:04:25;;;;;;;73.20;43.13;;;6.90;95.20;;;;;;5041348;28;20045;-64
2021/03/03 10:06:51;;;;;;;70.18;42.20;;;7.00;95.20;;;;;;5050981;28;20041;-63
2021/03/03 10:09:17;;;;;;;75.70;44.67;;;7.20;95.00;;;;;;5048823;28;20141;-63
2021/03/03 10:11:43;;;;;;;73.45;42.78;;;7.30;94.60;;;;;;5037398;28;20092;-63
2021/03/03 10:14:09;;;;;;;72.67;41.83;;;7.40;94.60;;;;;;5032210;28;20045;-63
2021/03/03 10:16:35;;;;;;;73.20;41.50;;;7.50;94.50;;;;;;5036637;28;20507;-63
2021/03/03 10:19:08;;;;;;;63.30;38.43;;;7.60;94.40;;;;;;5032623;28;20096;-63
2021/03/03 10:21:44;;;;;;;68.72;40.55;;;7.80;94.30;;;;;;5031316;28;20053;-63
2021/03/03 10:24:27;;;;;;;72.18;41.63;;;7.90;94.20;;;;;;5030766;28;20072;-63
2021/03/03 10:26:53;;;;;;;62.60;38.97;;;8.00;94.10;;;;;;5029385;28;20135;-64
2021/03/03 10:29:36;;;;;;;71.70;40.60;;;8.10;94.10;;;;;;5030693;28;20402;-64
2021/03/03 10:32:28;;;;;;;66.93;39.17;;;8.20;93.60;;;;;;5031264;28;20049;-64
2021/03/03 10:35:00;;;;;;;68.33;40.23;;;8.30;93.20;;;;;;5029326;28;20671;-64
2021/03/03 10:37:26;;;;;;;67.83;40.57;;;8.40;93.50;;;;;;5029685;28;20326;-63
2021/03/03 10:39:52;;;;;;;61.60;39.40;;;8.60;93.30;;;;;;5029988;28;20312;-64
2021/03/03 10:42:24;;;;;;;71.53;42.07;;;8.60;93.10;;;;;;5030401;28;20288;-63
2021/03/03 10:44:52;;;;;;;72.37;41.77;;;8.80;93.10;;;;;;5032294;28;20769;-64
2021/03/03 10:47:39;;;;;;;62.30;40.30;;;8.80;92.60;;;;;;5030211;28;20284;-64
2021/03/03 10:50:06;;;;;;;69.30;40.43;;;8.90;91.80;;;;;;5028663;28;20300;-64
2021/03/03 10:52:32;;;;;;;65.23;41.00;;;8.90;91.60;;;;;;5028841;28;20314;-64
2021/03/03 10:54:58;;;;;;;66.53;41.33;;;9.10;91.80;;;;;;5028819;28;20303;-64
2021/03/03 10:57:25;;;;;;;63.57;41.47;;;9.10;91.70;;;;;;5028694;28;20054;-63
2021/03/03 11:00:04;;;;;;;71.33;41.33;;;9.20;91.70;;;;;;5029723;28;20063;-64
2021/03/03 11:02:30;;;;;;;69.77;43.17;;;9.30;91.30;;;;;;5028555;28;20366;-65
2021/03/03 11:04:56;;;;;;;70.13;43.70;;;9.30;91.00;;;;;;5031572;28;20292;-63
2021/03/03 11:07:21;;;;;;;76.27;45.37;;;9.30;90.90;;;;;;5030558;28;20086;-64
2021/03/03 11:09:52;;;;;;;74.40;45.40;;;9.40;90.90;;;;;;5030895;28;20084;-64
2021/03/03 11:12:25;;;;;;;75.03;47.40;;;9.50;91.00;;;;;;5032761;28;21523;-64
2021/03/03 11:14:50;;;;;;;80.13;48.50;;;9.50;90.80;;;;;;5028222;28;20726;-60
2021/03/03 11:17:16;;;;;;;76.10;47.73;;;9.60;90.80;;;;;;5027076;28;20368;-61
2021/03/03 11:19:42;;;;;;;75.27;46.20;;;9.60;90.60;;;;;;5027505;28;20069;-60
2021/03/03 11:22:08;;;;;;;79.47;48.70;;;9.60;90.70;;;;;;5027643;28;20049;-60
2021/03/03 11:24:34;;;;;;;81.63;48.90;;;9.70;90.80;;;;;;5026495;28;20395;-64
2021/03/03 11:26:59;;;;;;;86.67;51.57;;;9.70;90.40;;;;;;5027124;28;20093;-63
2021/03/03 11:29:25;;;;;;;89.87;51.40;;;9.70;90.20;;;;;;5027159;28;20109;-64
2021/03/03 11:31:51;;;;;;;83.53;51.83;;;9.70;90.50;;;;;;5026866;28;20152;-63
2021/03/03 11:34:17;;;;;;;81.83;49.80;;;9.70;90.40;;;;;;5027859;28;20045;-64
2021/03/03 11:36:42;;;;;;;82.97;52.37;;;9.80;90.40;;;;;;5028409;28;20124;-64
2021/03/03 11:39:09;;;;;;;90.43;54.70;;;9.80;90.50;;;;;;5031127;28;20753;-65
2021/03/03 11:41:35;;;;;;;88.77;57.07;;;9.90;90.00;;;;;;5028885;28;20053;-64
2021/03/03 11:44:02;;;;;;;98.40;59.80;;;10.00;90.10;;;;;;5029089;28;20722;-66
2021/03/03 11:46:28;;;;;;;90.10;55.80;;;10.10;87.90;;;;;;5029270;28;20323;-67
2021/03/03 11:48:54;;;;;;;92.97;57.20;;;10.10;88.40;;;;;;5028736;28;20759;-65
2021/03/03 11:51:20;;;;;;;91.30;59.33;;;10.20;87.20;;;;;;5027845;28;20430;-64
2021/03/03 11:53:45;;;;;;;92.63;59.63;;;10.20;85.40;;;;;;5028935;28;20045;-64
2021/03/03 11:56:11;;;;;;;88.20;53.83;;;10.20;84.10;;;;;;5029364;28;20042;-64
2021/03/03 11:58:37;;;;;;;81.50;51.40;;;10.20;85.90;;;;;;5028854;28;20616;-64
2021/03/03 12:01:03;;;;;;;82.93;51.87;;;10.00;84.10;;;;;;5029227;28;20103;-63
2021/03/03 12:03:29;;;;;;;79.13;49.63;;;10.00;84.50;;;;;;5033167;28;20042;-64
2021/03/03 12:05:55;;;;;;;70.17;44.83;;;10.00;84.30;;;;;;5032798;28;20303;-64
2021/03/03 12:08:20;;;;;;;61.17;40.13;;;10.00;84.50;;;;;;5031521;28;20097;-64
2021/03/03 12:10:46;;;;;;;63.90;41.63;;;10.10;84.30;;;;;;5029892;28;20052;-62
2021/03/03 12:13:12;;;;;;;70.63;44.50;;;10.10;84.80;;;;;;5027415;28;20046;-62
2021/03/03 12:15:37;;;;;;;69.57;42.33;;;10.20;84.90;;;;;;5027959;28;20045;-65
2021/03/03 12:18:03;;;;;;;70.80;43.13;;;10.20;84.50;;;;;;5027924;28;20068;-64
2021/03/03 12:20:29;;;;;;;65.17;41.73;;;10.00;82.90;;;;;;5029151;28;20614;-62
2021/03/03 12:22:56;;;;;;;58.87;37.73;;;10.00;84.60;;;;;;5027221;28;20057;-61
2021/03/03 12:25:22;;;;;;;58.37;37.23;;;9.80;83.60;;;;;;5029463;28;20762;-61
2021/03/03 12:27:48;;;;;;;56.73;35.67;;;9.80;83.60;;;;;;5027740;28;20391;-61
2021/03/03 12:30:14;;;;;;;51.77;33.47;;;9.70;83.80;;;;;;5028351;28;20427;-61
2021/03/03 12:32:40;;;;;;;53.73;34.37;;;9.60;82.30;;;;;;5038373;28;20062;-61
2021/03/03 12:35:06;;;;;;;56.03;33.60;;;9.50;83.80;;;;;;5030010;28;20326;-62
2021/03/03 12:37:32;;;;;;;50.30;33.20;;;9.40;83.10;;;;;;5034213;28;20100;-61
2021/03/03 12:39:57;;;;;;;48.23;32.07;;;9.50;84.70;;;;;;5035915;28;20304;-61
2021/03/03 12:42:23;;;;;;;49.47;33.00;;;9.40;83.70;;;;;;5035024;28;20053;-59
2021/03/03 12:44:49;;;;;;;46.83;31.00;;;9.30;84.10;;;;;;5035989;28;20492;-60